<?xml version="1.0" encoding="utf-8"?>
<gpx xmlns:xsi="http://www.w3.org/2001/XMLSchema-instance" xmlns:xsd="http://www.w3.org/2001/XMLSchema" version="1.1" creator="Shapelink.com" xmlns="http://www.topografix.com/GPX/1/1" xmlns:gpxtpx="http://www.garmin.com/xmlschemas/TrackPointExtension/v1">
  <metadata>
    <name>Roller skiing 5.17 km, 2019-10-21</name>
    <desc></desc>
    <author><name>Per Rooth</name></author> 
    <time>2019-10-21T19:08:30Z</time>
  </metadata>
  <trk>
    <name>Roller skiing 5.17 km, 2019-10-21</name>
    <trkseg>
      <trkpt lat="56.881009303289" lon="14.741133452341">
        <ele>157</ele>
        <time>2019-10-21T19:08:30Z</time>
      </trkpt>
      <trkpt lat="56.88078206998" lon="14.740881995341">
        <ele>156.6</ele>
        <time>2019-10-21T19:08:37Z</time>
      </trkpt>
      <trkpt lat="56.880663466095" lon="14.740689044003">
        <ele>157.2</ele>
        <time>2019-10-21T19:08:40Z</time>
      </trkpt>
      <trkpt lat="56.880471185309" lon="14.740309092476">
        <ele>158.4</ele>
        <time>2019-10-21T19:08:45Z</time>
      </trkpt>
      <trkpt lat="56.880351407958" lon="14.740075237466">
        <ele>158.8</ele>
        <time>2019-10-21T19:08:48Z</time>
      </trkpt>
      <trkpt lat="56.879995512484" lon="14.739524965731">
        <ele>157.8</ele>
        <time>2019-10-21T19:08:57Z</time>
      </trkpt>
      <trkpt lat="56.879956201373" lon="14.739488420647">
        <ele>158</ele>
        <time>2019-10-21T19:08:58Z</time>
      </trkpt>
      <trkpt lat="56.879884200852" lon="14.739480960756">
        <ele>158.2</ele>
        <time>2019-10-21T19:09:00Z</time>
      </trkpt>
      <trkpt lat="56.879835502013" lon="14.739593445854">
        <ele>158.6</ele>
        <time>2019-10-21T19:09:02Z</time>
      </trkpt>
      <trkpt lat="56.879772553944" lon="14.739822523181">
        <ele>159.4</ele>
        <time>2019-10-21T19:09:05Z</time>
      </trkpt>
      <trkpt lat="56.879712371902" lon="14.740065430643">
        <ele>159.4</ele>
        <time>2019-10-21T19:09:08Z</time>
      </trkpt>
      <trkpt lat="56.879519420564" lon="14.740863219885">
        <ele>160.2</ele>
        <time>2019-10-21T19:09:18Z</time>
      </trkpt>
      <trkpt lat="56.879359410093" lon="14.741530586763">
        <ele>160.4</ele>
        <time>2019-10-21T19:09:26Z</time>
      </trkpt>
      <trkpt lat="56.879260252216" lon="14.741936103085">
        <ele>160.6</ele>
        <time>2019-10-21T19:09:31Z</time>
      </trkpt>
      <trkpt lat="56.879190850084" lon="14.742121510713">
        <ele>160.2</ele>
        <time>2019-10-21T19:09:34Z</time>
      </trkpt>
      <trkpt lat="56.879140810141" lon="14.742256459303">
        <ele>160.2</ele>
        <time>2019-10-21T19:09:36Z</time>
      </trkpt>
      <trkpt lat="56.879023212084" lon="14.742824752123">
        <ele>160.2</ele>
        <time>2019-10-21T19:09:43Z</time>
      </trkpt>
      <trkpt lat="56.879005023361" lon="14.743272764678">
        <ele>161.4</ele>
        <time>2019-10-21T19:09:48Z</time>
      </trkpt>
      <trkpt lat="56.879006532103" lon="14.74335893061">
        <ele>161.6</ele>
        <time>2019-10-21T19:09:49Z</time>
      </trkpt>
      <trkpt lat="56.879031258708" lon="14.743660092277">
        <ele>161.2</ele>
        <time>2019-10-21T19:09:53Z</time>
      </trkpt>
      <trkpt lat="56.879090686379" lon="14.743775091945">
        <ele>160.8</ele>
        <time>2019-10-21T19:09:55Z</time>
      </trkpt>
      <trkpt lat="56.879163692728" lon="14.743855893461">
        <ele>160.6</ele>
        <time>2019-10-21T19:09:57Z</time>
      </trkpt>
      <trkpt lat="56.879232675765" lon="14.743949435465">
        <ele>160.4</ele>
        <time>2019-10-21T19:09:59Z</time>
      </trkpt>
      <trkpt lat="56.879300904431" lon="14.744049431532">
        <ele>160.2</ele>
        <time>2019-10-21T19:10:01Z</time>
      </trkpt>
      <trkpt lat="56.879656883724" lon="14.744618311085">
        <ele>161.4</ele>
        <time>2019-10-21T19:10:11Z</time>
      </trkpt>
      <trkpt lat="56.879786216441" lon="14.744745632146">
        <ele>160.6</ele>
        <time>2019-10-21T19:10:14Z</time>
      </trkpt>
      <trkpt lat="56.879979419236" lon="14.744854513027">
        <ele>159.4</ele>
        <time>2019-10-21T19:10:18Z</time>
      </trkpt>
      <trkpt lat="56.880137753327" lon="14.744923998978">
        <ele>159</ele>
        <time>2019-10-21T19:10:21Z</time>
      </trkpt>
      <trkpt lat="56.880571265195" lon="14.744861721461">
        <ele>159</ele>
        <time>2019-10-21T19:10:29Z</time>
      </trkpt>
      <trkpt lat="56.880753739158" lon="14.744828948232">
        <ele>158.4</ele>
        <time>2019-10-21T19:10:32Z</time>
      </trkpt>
      <trkpt lat="56.881238380616" lon="14.744843700376">
        <ele>158</ele>
        <time>2019-10-21T19:10:41Z</time>
      </trkpt>
      <trkpt lat="56.88133778995" lon="14.744915784716">
        <ele>157.6</ele>
        <time>2019-10-21T19:10:43Z</time>
      </trkpt>
      <trkpt lat="56.881428146832" lon="14.745019552638">
        <ele>157.2</ele>
        <time>2019-10-21T19:10:45Z</time>
      </trkpt>
      <trkpt lat="56.881467122667" lon="14.745049476021">
        <ele>156.8</ele>
        <time>2019-10-21T19:10:46Z</time>
      </trkpt>
      <trkpt lat="56.881508110158" lon="14.74501184129">
        <ele>156.6</ele>
        <time>2019-10-21T19:10:48Z</time>
      </trkpt>
      <trkpt lat="56.881532333849" lon="14.744703974103">
        <ele>157.2</ele>
        <time>2019-10-21T19:10:52Z</time>
      </trkpt>
      <trkpt lat="56.881520683008" lon="14.744448912886">
        <ele>157.8</ele>
        <time>2019-10-21T19:10:55Z</time>
      </trkpt>
      <trkpt lat="56.881520850646" lon="14.74413593274">
        <ele>158.2</ele>
        <time>2019-10-21T19:10:59Z</time>
      </trkpt>
      <trkpt lat="56.881504841217" lon="14.74397500026">
        <ele>158.2</ele>
        <time>2019-10-21T19:11:01Z</time>
      </trkpt>
      <trkpt lat="56.881493777109" lon="14.7437118086">
        <ele>158.4</ele>
        <time>2019-10-21T19:11:04Z</time>
      </trkpt>
      <trkpt lat="56.881529567822" lon="14.742870768754">
        <ele>158.6</ele>
        <time>2019-10-21T19:11:14Z</time>
      </trkpt>
      <trkpt lat="56.881507607244" lon="14.742095862099">
        <ele>157.2</ele>
        <time>2019-10-21T19:11:22Z</time>
      </trkpt>
      <trkpt lat="56.88150710433" lon="14.741999637887">
        <ele>157</ele>
        <time>2019-10-21T19:11:23Z</time>
      </trkpt>
      <trkpt lat="56.881522024112" lon="14.741701326066">
        <ele>157</ele>
        <time>2019-10-21T19:11:26Z</time>
      </trkpt>
      <trkpt lat="56.881493777109" lon="14.741528742745">
        <ele>157</ele>
        <time>2019-10-21T19:11:28Z</time>
      </trkpt>
      <trkpt lat="56.881423872063" lon="14.741407791928">
        <ele>156.4</ele>
        <time>2019-10-21T19:11:30Z</time>
      </trkpt>
      <trkpt lat="56.881339214873" lon="14.741348867171">
        <ele>155.8</ele>
        <time>2019-10-21T19:11:32Z</time>
      </trkpt>
      <trkpt lat="56.880941912813" lon="14.741095649972">
        <ele>155.2</ele>
        <time>2019-10-21T19:11:41Z</time>
      </trkpt>
      <trkpt lat="56.880855495424" lon="14.741026666935">
        <ele>155.6</ele>
        <time>2019-10-21T19:11:43Z</time>
      </trkpt>
      <trkpt lat="56.880780561238" lon="14.740930945637">
        <ele>155.8</ele>
        <time>2019-10-21T19:11:45Z</time>
      </trkpt>
      <trkpt lat="56.880585430606" lon="14.740538505079">
        <ele>157.4</ele>
        <time>2019-10-21T19:11:51Z</time>
      </trkpt>
      <trkpt lat="56.880525164745" lon="14.740384613395">
        <ele>156.2</ele>
        <time>2019-10-21T19:11:53Z</time>
      </trkpt>
      <trkpt lat="56.88042667742" lon="14.74018470508">
        <ele>157.6</ele>
        <time>2019-10-21T19:11:56Z</time>
      </trkpt>
      <trkpt lat="56.880327938638" lon="14.739997118158">
        <ele>158.8</ele>
        <time>2019-10-21T19:11:59Z</time>
      </trkpt>
      <trkpt lat="56.880264822931" lon="14.73987625116">
        <ele>159.4</ele>
        <time>2019-10-21T19:12:01Z</time>
      </trkpt>
      <trkpt lat="56.880230876236" lon="14.739819924792">
        <ele>160.8</ele>
        <time>2019-10-21T19:12:02Z</time>
      </trkpt>
      <trkpt lat="56.880033398672" lon="14.739513566347">
        <ele>159.6</ele>
        <time>2019-10-21T19:12:08Z</time>
      </trkpt>
      <trkpt lat="56.879958296848" lon="14.739437207238">
        <ele>159.2</ele>
        <time>2019-10-21T19:12:10Z</time>
      </trkpt>
      <trkpt lat="56.879882859748" lon="14.739426646044">
        <ele>159</ele>
        <time>2019-10-21T19:12:12Z</time>
      </trkpt>
      <trkpt lat="56.879693344989" lon="14.7401075916">
        <ele>160.8</ele>
        <time>2019-10-21T19:12:22Z</time>
      </trkpt>
      <trkpt lat="56.879518498555" lon="14.740883001169">
        <ele>161.2</ele>
        <time>2019-10-21T19:12:32Z</time>
      </trkpt>
      <trkpt lat="56.879445827482" lon="14.741187683234">
        <ele>159.8</ele>
        <time>2019-10-21T19:12:36Z</time>
      </trkpt>
      <trkpt lat="56.879426046198" lon="14.741268736207">
        <ele>158.6</ele>
        <time>2019-10-21T19:12:37Z</time>
      </trkpt>
      <trkpt lat="56.879210882825" lon="14.742064429974">
        <ele>159.4</ele>
        <time>2019-10-21T19:12:47Z</time>
      </trkpt>
      <trkpt lat="56.879163022176" lon="14.742196109623">
        <ele>159.8</ele>
        <time>2019-10-21T19:12:49Z</time>
      </trkpt>
      <trkpt lat="56.879126560911" lon="14.74231370768">
        <ele>160.6</ele>
        <time>2019-10-21T19:12:51Z</time>
      </trkpt>
      <trkpt lat="56.879109629473" lon="14.7423874684">
        <ele>160.8</ele>
        <time>2019-10-21T19:12:52Z</time>
      </trkpt>
      <trkpt lat="56.879009549587" lon="14.742865823433">
        <ele>160.6</ele>
        <time>2019-10-21T19:12:58Z</time>
      </trkpt>
      <trkpt lat="56.879000497135" lon="14.743019296022">
        <ele>160.2</ele>
        <time>2019-10-21T19:13:00Z</time>
      </trkpt>
      <trkpt lat="56.879006280646" lon="14.743298832387">
        <ele>159.8</ele>
        <time>2019-10-21T19:13:03Z</time>
      </trkpt>
      <trkpt lat="56.879022206256" lon="14.743588762308">
        <ele>159.2</ele>
        <time>2019-10-21T19:13:06Z</time>
      </trkpt>
      <trkpt lat="56.879076437149" lon="14.743715748093">
        <ele>158.8</ele>
        <time>2019-10-21T19:13:08Z</time>
      </trkpt>
      <trkpt lat="56.879256312723" lon="14.743928983629">
        <ele>158.8</ele>
        <time>2019-10-21T19:13:13Z</time>
      </trkpt>
      <trkpt lat="56.879380448662" lon="14.744170717625">
        <ele>159.8</ele>
        <time>2019-10-21T19:13:17Z</time>
      </trkpt>
      <trkpt lat="56.879546075006" lon="14.744493504594">
        <ele>159.6</ele>
        <time>2019-10-21T19:13:22Z</time>
      </trkpt>
      <trkpt lat="56.879682699976" lon="14.744648318287">
        <ele>159</ele>
        <time>2019-10-21T19:13:25Z</time>
      </trkpt>
      <trkpt lat="56.879823767353" lon="14.744766670715">
        <ele>160.6</ele>
        <time>2019-10-21T19:13:28Z</time>
      </trkpt>
      <trkpt lat="56.879936587727" lon="14.744820147237">
        <ele>157.8</ele>
        <time>2019-10-21T19:13:30Z</time>
      </trkpt>
      <trkpt lat="56.880209250934" lon="14.744931710326">
        <ele>157.8</ele>
        <time>2019-10-21T19:13:35Z</time>
      </trkpt>
      <trkpt lat="56.880424665764" lon="14.744906732264">
        <ele>157.8</ele>
        <time>2019-10-21T19:13:39Z</time>
      </trkpt>
      <trkpt lat="56.880906038281" lon="14.744836491942">
        <ele>158</ele>
        <time>2019-10-21T19:13:47Z</time>
      </trkpt>
      <trkpt lat="56.881146347354" lon="14.744850992629">
        <ele>156.8</ele>
        <time>2019-10-21T19:13:51Z</time>
      </trkpt>
      <trkpt lat="56.881202589903" lon="14.744865241859">
        <ele>156.6</ele>
        <time>2019-10-21T19:13:52Z</time>
      </trkpt>
      <trkpt lat="56.88144088732" lon="14.74501184129">
        <ele>156</ele>
        <time>2019-10-21T19:13:56Z</time>
      </trkpt>
      <trkpt lat="56.881483299734" lon="14.745039333922">
        <ele>155.8</ele>
        <time>2019-10-21T19:13:57Z</time>
      </trkpt>
      <trkpt lat="56.881519341904" lon="14.745039836836">
        <ele>155.6</ele>
        <time>2019-10-21T19:13:58Z</time>
      </trkpt>
      <trkpt lat="56.881581535602" lon="14.74494646247">
        <ele>155.8</ele>
        <time>2019-10-21T19:14:00Z</time>
      </trkpt>
      <trkpt lat="56.881586397104" lon="14.744614958325">
        <ele>156.8</ele>
        <time>2019-10-21T19:14:04Z</time>
      </trkpt>
      <trkpt lat="56.881583295801" lon="14.7443404511">
        <ele>157.2</ele>
        <time>2019-10-21T19:14:07Z</time>
      </trkpt>
      <trkpt lat="56.881544487604" lon="14.744065440961">
        <ele>157.4</ele>
        <time>2019-10-21T19:14:10Z</time>
      </trkpt>
      <trkpt lat="56.881514312764" lon="14.743880703885">
        <ele>158.2</ele>
        <time>2019-10-21T19:14:12Z</time>
      </trkpt>
      <trkpt lat="56.881508529253" lon="14.743784563492">
        <ele>159</ele>
        <time>2019-10-21T19:14:13Z</time>
      </trkpt>
      <trkpt lat="56.881517246429" lon="14.743593372353">
        <ele>158.8</ele>
        <time>2019-10-21T19:14:15Z</time>
      </trkpt>
      <trkpt lat="56.881519341904" lon="14.743502344919">
        <ele>159.8</ele>
        <time>2019-10-21T19:14:16Z</time>
      </trkpt>
      <trkpt lat="56.881520850646" lon="14.74340586925">
        <ele>161.2</ele>
        <time>2019-10-21T19:14:17Z</time>
      </trkpt>
      <trkpt lat="56.881526885614" lon="14.743218366147">
        <ele>160</ele>
        <time>2019-10-21T19:14:19Z</time>
      </trkpt>
      <trkpt lat="56.881532333849" lon="14.74236819003">
        <ele>160.2</ele>
        <time>2019-10-21T19:14:28Z</time>
      </trkpt>
      <trkpt lat="56.881555048798" lon="14.741776846985">
        <ele>158.6</ele>
        <time>2019-10-21T19:14:34Z</time>
      </trkpt>
      <trkpt lat="56.881557898644" lon="14.741684059352">
        <ele>158.6</ele>
        <time>2019-10-21T19:14:35Z</time>
      </trkpt>
      <trkpt lat="56.881530489831" lon="14.741482642295">
        <ele>158</ele>
        <time>2019-10-21T19:14:37Z</time>
      </trkpt>
      <trkpt lat="56.881451951428" lon="14.741368983731">
        <ele>157.8</ele>
        <time>2019-10-21T19:14:39Z</time>
      </trkpt>
      <trkpt lat="56.88135371556" lon="14.741310980983">
        <ele>157.6</ele>
        <time>2019-10-21T19:14:41Z</time>
      </trkpt>
      <trkpt lat="56.881304849083" lon="14.741298491952">
        <ele>157.4</ele>
        <time>2019-10-21T19:14:42Z</time>
      </trkpt>
      <trkpt lat="56.881199320962" lon="14.741271502234">
        <ele>157.2</ele>
        <time>2019-10-21T19:14:44Z</time>
      </trkpt>
      <trkpt lat="56.881098486705" lon="14.741218696264">
        <ele>155.6</ele>
        <time>2019-10-21T19:14:46Z</time>
      </trkpt>
      <trkpt lat="56.881002178674" lon="14.741152982168">
        <ele>156.2</ele>
        <time>2019-10-21T19:14:48Z</time>
      </trkpt>
      <trkpt lat="56.880955659129" lon="14.741115263618">
        <ele>156.8</ele>
        <time>2019-10-21T19:14:49Z</time>
      </trkpt>
      <trkpt lat="56.880776789383" lon="14.740956007518">
        <ele>157.2</ele>
        <time>2019-10-21T19:14:53Z</time>
      </trkpt>
      <trkpt lat="56.8806211375" lon="14.740723325974">
        <ele>157.8</ele>
        <time>2019-10-21T19:14:57Z</time>
      </trkpt>
      <trkpt lat="56.880548801703" lon="14.740595669637">
        <ele>157.8</ele>
        <time>2019-10-21T19:14:59Z</time>
      </trkpt>
      <trkpt lat="56.880488116747" lon="14.740453931708">
        <ele>157.8</ele>
        <time>2019-10-21T19:15:01Z</time>
      </trkpt>
      <trkpt lat="56.880317796539" lon="14.740122930477">
        <ele>159</ele>
        <time>2019-10-21T19:15:06Z</time>
      </trkpt>
      <trkpt lat="56.879995763941" lon="14.739531084518">
        <ele>157.8</ele>
        <time>2019-10-21T19:15:16Z</time>
      </trkpt>
      <trkpt lat="56.879959554133" lon="14.739486828086">
        <ele>158</ele>
        <time>2019-10-21T19:15:17Z</time>
      </trkpt>
      <trkpt lat="56.879884452309" lon="14.739468723182">
        <ele>157.6</ele>
        <time>2019-10-21T19:15:19Z</time>
      </trkpt>
      <trkpt lat="56.879682197062" lon="14.740277408894">
        <ele>158.2</ele>
        <time>2019-10-21T19:15:30Z</time>
      </trkpt>
      <trkpt lat="56.879509446103" lon="14.741071426281">
        <ele>158.4</ele>
        <time>2019-10-21T19:15:40Z</time>
      </trkpt>
      <trkpt lat="56.879305933571" lon="14.741810039309">
        <ele>158.2</ele>
        <time>2019-10-21T19:15:49Z</time>
      </trkpt>
      <trkpt lat="56.879262096234" lon="14.74196669702">
        <ele>158.2</ele>
        <time>2019-10-21T19:15:51Z</time>
      </trkpt>
      <trkpt lat="56.879211134282" lon="14.742105585103">
        <ele>158.2</ele>
        <time>2019-10-21T19:15:53Z</time>
      </trkpt>
      <trkpt lat="56.879166291117" lon="14.742235504553">
        <ele>158.6</ele>
        <time>2019-10-21T19:15:55Z</time>
      </trkpt>
      <trkpt lat="56.879134020802" lon="14.742385121468">
        <ele>159</ele>
        <time>2019-10-21T19:15:57Z</time>
      </trkpt>
      <trkpt lat="56.87904701668" lon="14.742802288631">
        <ele>160</ele>
        <time>2019-10-21T19:16:02Z</time>
      </trkpt>
      <trkpt lat="56.879033186545" lon="14.742876384627">
        <ele>160.2</ele>
        <time>2019-10-21T19:16:03Z</time>
      </trkpt>
      <trkpt lat="56.8790201946" lon="14.743034886356">
        <ele>160</ele>
        <time>2019-10-21T19:16:05Z</time>
      </trkpt>
      <trkpt lat="56.8790118127" lon="14.743506954964">
        <ele>159.6</ele>
        <time>2019-10-21T19:16:10Z</time>
      </trkpt>
      <trkpt lat="56.879045927033" lon="14.743650788368">
        <ele>159.2</ele>
        <time>2019-10-21T19:16:12Z</time>
      </trkpt>
      <trkpt lat="56.879109126559" lon="14.74374952715">
        <ele>160.4</ele>
        <time>2019-10-21T19:16:14Z</time>
      </trkpt>
      <trkpt lat="56.879182719641" lon="14.743850193769">
        <ele>161.2</ele>
        <time>2019-10-21T19:16:16Z</time>
      </trkpt>
      <trkpt lat="56.879289002133" lon="14.743995535915">
        <ele>161.4</ele>
        <time>2019-10-21T19:16:19Z</time>
      </trkpt>
      <trkpt lat="56.879524701161" lon="14.744382779695">
        <ele>162</ele>
        <time>2019-10-21T19:16:25Z</time>
      </trkpt>
      <trkpt lat="56.87968487927" lon="14.744622502035">
        <ele>161.8</ele>
        <time>2019-10-21T19:16:29Z</time>
      </trkpt>
      <trkpt lat="56.880093832171" lon="14.74490790573">
        <ele>160.6</ele>
        <time>2019-10-21T19:16:37Z</time>
      </trkpt>
      <trkpt lat="56.880210675857" lon="14.744927687014">
        <ele>160.2</ele>
        <time>2019-10-21T19:16:39Z</time>
      </trkpt>
      <trkpt lat="56.880265074388" lon="14.744929279575">
        <ele>159.8</ele>
        <time>2019-10-21T19:16:40Z</time>
      </trkpt>
      <trkpt lat="56.880328022457" lon="14.744929866308">
        <ele>159.6</ele>
        <time>2019-10-21T19:16:41Z</time>
      </trkpt>
      <trkpt lat="56.880499935226" lon="14.744887705351">
        <ele>157.8</ele>
        <time>2019-10-21T19:16:44Z</time>
      </trkpt>
      <trkpt lat="56.880615773084" lon="14.744842023996">
        <ele>158.8</ele>
        <time>2019-10-21T19:16:46Z</time>
      </trkpt>
      <trkpt lat="56.880841665289" lon="14.744827188033">
        <ele>158.8</ele>
        <time>2019-10-21T19:16:50Z</time>
      </trkpt>
      <trkpt lat="56.881245169955" lon="14.744911174671">
        <ele>158.4</ele>
        <time>2019-10-21T19:16:58Z</time>
      </trkpt>
      <trkpt lat="56.881346255669" lon="14.745012344204">
        <ele>157.4</ele>
        <time>2019-10-21T19:17:00Z</time>
      </trkpt>
      <trkpt lat="56.881384812409" lon="14.745047799641">
        <ele>157</ele>
        <time>2019-10-21T19:17:01Z</time>
      </trkpt>
      <trkpt lat="56.881460333328" lon="14.745062048871">
        <ele>156.4</ele>
        <time>2019-10-21T19:17:03Z</time>
      </trkpt>
      <trkpt lat="56.881490927263" lon="14.745032963678">
        <ele>156.4</ele>
        <time>2019-10-21T19:17:04Z</time>
      </trkpt>
      <trkpt lat="56.881555803169" lon="14.74481905759">
        <ele>156.6</ele>
        <time>2019-10-21T19:17:07Z</time>
      </trkpt>
      <trkpt lat="56.881560077938" lon="14.744476740794">
        <ele>157.6</ele>
        <time>2019-10-21T19:17:11Z</time>
      </trkpt>
      <trkpt lat="56.881556892816" lon="14.744385880998">
        <ele>157.6</ele>
        <time>2019-10-21T19:17:12Z</time>
      </trkpt>
      <trkpt lat="56.881561251404" lon="14.744192845841">
        <ele>157.8</ele>
        <time>2019-10-21T19:17:14Z</time>
      </trkpt>
      <trkpt lat="56.881549684382" lon="14.744008276403">
        <ele>157.6</ele>
        <time>2019-10-21T19:17:16Z</time>
      </trkpt>
      <trkpt lat="56.881519425723" lon="14.743834351978">
        <ele>157.4</ele>
        <time>2019-10-21T19:17:18Z</time>
      </trkpt>
      <trkpt lat="56.881491765453" lon="14.743095906588">
        <ele>158.8</ele>
        <time>2019-10-21T19:17:26Z</time>
      </trkpt>
      <trkpt lat="56.881524957777" lon="14.742236510381">
        <ele>159.2</ele>
        <time>2019-10-21T19:17:35Z</time>
      </trkpt>
      <trkpt lat="56.881554964979" lon="14.741724543929">
        <ele>158.4</ele>
        <time>2019-10-21T19:17:40Z</time>
      </trkpt>
      <trkpt lat="56.881532166211" lon="14.741528407469">
        <ele>157.8</ele>
        <time>2019-10-21T19:17:42Z</time>
      </trkpt>
      <trkpt lat="56.881504841217" lon="14.741433272904">
        <ele>157.6</ele>
        <time>2019-10-21T19:17:43Z</time>
      </trkpt>
      <trkpt lat="56.881452035247" lon="14.741377868545">
        <ele>157.4</ele>
        <time>2019-10-21T19:17:44Z</time>
      </trkpt>
      <trkpt lat="56.881340975072" lon="14.741329588801">
        <ele>157</ele>
        <time>2019-10-21T19:17:46Z</time>
      </trkpt>
      <trkpt lat="56.881229914897" lon="14.741303185816">
        <ele>156.2</ele>
        <time>2019-10-21T19:17:48Z</time>
      </trkpt>
      <trkpt lat="56.880828757163" lon="14.741060278354">
        <ele>156</ele>
        <time>2019-10-21T19:17:56Z</time>
      </trkpt>
      <trkpt lat="56.880752481873" lon="14.740929520714">
        <ele>156</ele>
        <time>2019-10-21T19:17:58Z</time>
      </trkpt>
      <trkpt lat="56.880540168346" lon="14.740524842582">
        <ele>155.8</ele>
        <time>2019-10-21T19:18:04Z</time>
      </trkpt>
      <trkpt lat="56.880236575928" lon="14.739916987194">
        <ele>155.8</ele>
        <time>2019-10-21T19:18:13Z</time>
      </trkpt>
      <trkpt lat="56.880200869034" lon="14.739861079921">
        <ele>155.8</ele>
        <time>2019-10-21T19:18:14Z</time>
      </trkpt>
      <trkpt lat="56.880095089456" lon="14.739707355875">
        <ele>156</ele>
        <time>2019-10-21T19:18:17Z</time>
      </trkpt>
      <trkpt lat="56.879919991565" lon="14.739500993497">
        <ele>157.2</ele>
        <time>2019-10-21T19:18:22Z</time>
      </trkpt>
      <trkpt lat="56.87984664994" lon="14.739567294326">
        <ele>157.4</ele>
        <time>2019-10-21T19:18:24Z</time>
      </trkpt>
      <trkpt lat="56.879811362141" lon="14.739690256799">
        <ele>157.8</ele>
        <time>2019-10-21T19:18:26Z</time>
      </trkpt>
      <trkpt lat="56.879766686614" lon="14.739910197855">
        <ele>158.6</ele>
        <time>2019-10-21T19:18:29Z</time>
      </trkpt>
      <trkpt lat="56.879582200995" lon="14.740680997379">
        <ele>158.6</ele>
        <time>2019-10-21T19:18:40Z</time>
      </trkpt>
      <trkpt lat="56.879427638759" lon="14.741341155823">
        <ele>159.6</ele>
        <time>2019-10-21T19:18:48Z</time>
      </trkpt>
      <trkpt lat="56.879193532292" lon="14.742115308107">
        <ele>160.2</ele>
        <time>2019-10-21T19:18:58Z</time>
      </trkpt>
      <trkpt lat="56.879141983607" lon="14.742233911992">
        <ele>160.4</ele>
        <time>2019-10-21T19:19:00Z</time>
      </trkpt>
      <trkpt lat="56.879121699409" lon="14.742296692423">
        <ele>160.6</ele>
        <time>2019-10-21T19:19:01Z</time>
      </trkpt>
      <trkpt lat="56.879014578727" lon="14.742948720424">
        <ele>160.2</ele>
        <time>2019-10-21T19:19:09Z</time>
      </trkpt>
      <trkpt lat="56.879009801044" lon="14.743123902134">
        <ele>159.6</ele>
        <time>2019-10-21T19:19:11Z</time>
      </trkpt>
      <trkpt lat="56.879001670601" lon="14.743401259205">
        <ele>158.2</ele>
        <time>2019-10-21T19:19:14Z</time>
      </trkpt>
      <trkpt lat="56.879005610094" lon="14.74349723196">
        <ele>157.4</ele>
        <time>2019-10-21T19:19:15Z</time>
      </trkpt>
      <trkpt lat="56.879039640608" lon="14.743656823336">
        <ele>158.2</ele>
        <time>2019-10-21T19:19:17Z</time>
      </trkpt>
      <trkpt lat="56.87909982265" lon="14.743769224615">
        <ele>158.2</ele>
        <time>2019-10-21T19:19:19Z</time>
      </trkpt>
      <trkpt lat="56.879296964938" lon="14.744006683842">
        <ele>157.8</ele>
        <time>2019-10-21T19:19:24Z</time>
      </trkpt>
      <trkpt lat="56.879426046198" lon="14.744254788082">
        <ele>157.6</ele>
        <time>2019-10-21T19:19:28Z</time>
      </trkpt>
      <trkpt lat="56.879485725326" lon="14.744389401396">
        <ele>158.2</ele>
        <time>2019-10-21T19:19:30Z</time>
      </trkpt>
      <trkpt lat="56.879907586353" lon="14.744808244939">
        <ele>158.6</ele>
        <time>2019-10-21T19:19:39Z</time>
      </trkpt>
      <trkpt lat="56.880080756407" lon="14.744880748374">
        <ele>158</ele>
        <time>2019-10-21T19:19:42Z</time>
      </trkpt>
      <trkpt lat="56.880303212033" lon="14.744912515775">
        <ele>157.2</ele>
        <time>2019-10-21T19:19:46Z</time>
      </trkpt>
      <trkpt lat="56.880360041315" lon="14.74490958211">
        <ele>157.2</ele>
        <time>2019-10-21T19:19:47Z</time>
      </trkpt>
      <trkpt lat="56.880525332383" lon="14.74489533288">
        <ele>159.4</ele>
        <time>2019-10-21T19:19:50Z</time>
      </trkpt>
      <trkpt lat="56.880695484953" lon="14.744883430582">
        <ele>158.4</ele>
        <time>2019-10-21T19:19:53Z</time>
      </trkpt>
      <trkpt lat="56.881038472301" lon="14.744878066166">
        <ele>157.2</ele>
        <time>2019-10-21T19:19:59Z</time>
      </trkpt>
      <trkpt lat="56.881254557683" lon="14.744931626507">
        <ele>156.8</ele>
        <time>2019-10-21T19:20:03Z</time>
      </trkpt>
      <trkpt lat="56.881474163463" lon="14.745055175713">
        <ele>156.4</ele>
        <time>2019-10-21T19:20:09Z</time>
      </trkpt>
      <trkpt lat="56.881504925036" lon="14.744814782821">
        <ele>156.6</ele>
        <time>2019-10-21T19:20:12Z</time>
      </trkpt>
      <trkpt lat="56.881526131243" lon="14.744481434658">
        <ele>157.8</ele>
        <time>2019-10-21T19:20:16Z</time>
      </trkpt>
      <trkpt lat="56.881540296654" lon="14.744303486921">
        <ele>158</ele>
        <time>2019-10-21T19:20:18Z</time>
      </trkpt>
      <trkpt lat="56.881545828708" lon="14.744127215564">
        <ele>158</ele>
        <time>2019-10-21T19:20:20Z</time>
      </trkpt>
      <trkpt lat="56.881532417668" lon="14.743964019971">
        <ele>157.8</ele>
        <time>2019-10-21T19:20:22Z</time>
      </trkpt>
      <trkpt lat="56.881526634157" lon="14.74359362381">
        <ele>158.2</ele>
        <time>2019-10-21T19:20:26Z</time>
      </trkpt>
      <trkpt lat="56.88152805908" lon="14.743405114879">
        <ele>159.2</ele>
        <time>2019-10-21T19:20:28Z</time>
      </trkpt>
      <trkpt lat="56.881533758772" lon="14.742547059776">
        <ele>159.8</ele>
        <time>2019-10-21T19:20:37Z</time>
      </trkpt>
      <trkpt lat="56.88151129528" lon="14.742045235423">
        <ele>160</ele>
        <time>2019-10-21T19:20:42Z</time>
      </trkpt>
      <trkpt lat="56.881535435152" lon="14.741758658262">
        <ele>159.8</ele>
        <time>2019-10-21T19:20:45Z</time>
      </trkpt>
      <trkpt lat="56.881474247282" lon="14.741400834951">
        <ele>159</ele>
        <time>2019-10-21T19:20:49Z</time>
      </trkpt>
      <trkpt lat="56.881265202696" lon="14.741286422016">
        <ele>158.2</ele>
        <time>2019-10-21T19:20:53Z</time>
      </trkpt>
      <trkpt lat="56.881213570192" lon="14.741266389275">
        <ele>158.4</ele>
        <time>2019-10-21T19:20:54Z</time>
      </trkpt>
      <trkpt lat="56.880806209852" lon="14.740999006665">
        <ele>157.2</ele>
        <time>2019-10-21T19:21:02Z</time>
      </trkpt>
      <trkpt lat="56.880763126886" lon="14.740943434668">
        <ele>156</ele>
        <time>2019-10-21T19:21:03Z</time>
      </trkpt>
      <trkpt lat="56.880722809947" lon="14.74088124097">
        <ele>156.4</ele>
        <time>2019-10-21T19:21:04Z</time>
      </trkpt>
      <trkpt lat="56.880651479978" lon="14.740753668452">
        <ele>157.4</ele>
        <time>2019-10-21T19:21:06Z</time>
      </trkpt>
      <trkpt lat="56.880346630275" lon="14.740121170278">
        <ele>157.4</ele>
        <time>2019-10-21T19:21:15Z</time>
      </trkpt>
      <trkpt lat="56.880139848802" lon="14.739711546825">
        <ele>158.8</ele>
        <time>2019-10-21T19:21:21Z</time>
      </trkpt>
      <trkpt lat="56.879996015398" lon="14.73951918222">
        <ele>157.8</ele>
        <time>2019-10-21T19:21:25Z</time>
      </trkpt>
      <trkpt lat="56.879964415635" lon="14.739477440358">
        <ele>157.6</ele>
        <time>2019-10-21T19:21:26Z</time>
      </trkpt>
      <trkpt lat="56.879928038189" lon="14.739449780088">
        <ele>157.4</ele>
        <time>2019-10-21T19:21:27Z</time>
      </trkpt>
      <trkpt lat="56.879869029613" lon="14.739464616051">
        <ele>157.8</ele>
        <time>2019-10-21T19:21:29Z</time>
      </trkpt>
      <trkpt lat="56.879676581189" lon="14.740259974542">
        <ele>158.2</ele>
        <time>2019-10-21T19:21:40Z</time>
      </trkpt>
      <trkpt lat="56.879502070031" lon="14.740970759662">
        <ele>158.8</ele>
        <time>2019-10-21T19:21:49Z</time>
      </trkpt>
      <trkpt lat="56.879417664298" lon="14.741314082286">
        <ele>160</ele>
        <time>2019-10-21T19:21:53Z</time>
      </trkpt>
      <trkpt lat="56.879271903057" lon="14.741912885222">
        <ele>159.8</ele>
        <time>2019-10-21T19:22:00Z</time>
      </trkpt>
      <trkpt lat="56.879169140963" lon="14.742228882852">
        <ele>159.6</ele>
        <time>2019-10-21T19:22:05Z</time>
      </trkpt>
      <trkpt lat="56.879061098272" lon="14.742711345016">
        <ele>161</ele>
        <time>2019-10-21T19:22:11Z</time>
      </trkpt>
      <trkpt lat="56.879021284247" lon="14.743062714264">
        <ele>160.6</ele>
        <time>2019-10-21T19:22:15Z</time>
      </trkpt>
      <trkpt lat="56.879010387777" lon="14.743519276357">
        <ele>160.6</ele>
        <time>2019-10-21T19:22:20Z</time>
      </trkpt>
      <trkpt lat="56.879052213458" lon="14.743673000403">
        <ele>160.8</ele>
        <time>2019-10-21T19:22:22Z</time>
      </trkpt>
      <trkpt lat="56.879240554751" lon="14.743902161549">
        <ele>160.8</ele>
        <time>2019-10-21T19:22:27Z</time>
      </trkpt>
      <trkpt lat="56.879318925516" lon="14.744009533688">
        <ele>160.6</ele>
        <time>2019-10-21T19:22:29Z</time>
      </trkpt>
      <trkpt lat="56.879402828335" lon="14.744125790641">
        <ele>160.6</ele>
        <time>2019-10-21T19:22:31Z</time>
      </trkpt>
      <trkpt lat="56.879538950391" lon="14.744395687821">
        <ele>160.8</ele>
        <time>2019-10-21T19:22:35Z</time>
      </trkpt>
      <trkpt lat="56.879694853731" lon="14.744609845366">
        <ele>160.8</ele>
        <time>2019-10-21T19:22:39Z</time>
      </trkpt>
      <trkpt lat="56.879889565268" lon="14.744747559983">
        <ele>160.6</ele>
        <time>2019-10-21T19:22:43Z</time>
      </trkpt>
      <trkpt lat="56.879991824448" lon="14.744828780594">
        <ele>159.8</ele>
        <time>2019-10-21T19:22:45Z</time>
      </trkpt>
      <trkpt lat="56.880096095284" lon="14.744888292084">
        <ele>158.2</ele>
        <time>2019-10-21T19:22:47Z</time>
      </trkpt>
      <trkpt lat="56.880261637809" lon="14.744923998978">
        <ele>157.2</ele>
        <time>2019-10-21T19:22:50Z</time>
      </trkpt>
      <trkpt lat="56.880371189242" lon="14.744926262091">
        <ele>156.8</ele>
        <time>2019-10-21T19:22:52Z</time>
      </trkpt>
      <trkpt lat="56.880783997817" lon="14.744851411724">
        <ele>156</ele>
        <time>2019-10-21T19:22:59Z</time>
      </trkpt>
      <trkpt lat="56.881071748444" lon="14.744846298765">
        <ele>155.6</ele>
        <time>2019-10-21T19:23:04Z</time>
      </trkpt>
      <trkpt lat="56.881178114755" lon="14.744865828592">
        <ele>155.6</ele>
        <time>2019-10-21T19:23:06Z</time>
      </trkpt>
      <trkpt lat="56.881325468557" lon="14.744962136623">
        <ele>155</ele>
        <time>2019-10-21T19:23:09Z</time>
      </trkpt>
      <trkpt lat="56.881437031646" lon="14.745077806843">
        <ele>154.4</ele>
        <time>2019-10-21T19:23:12Z</time>
      </trkpt>
      <trkpt lat="56.881490424349" lon="14.745055510989">
        <ele>154.4</ele>
        <time>2019-10-21T19:23:14Z</time>
      </trkpt>
      <trkpt lat="56.881513055479" lon="14.744929614851">
        <ele>154.8</ele>
        <time>2019-10-21T19:23:16Z</time>
      </trkpt>
      <trkpt lat="56.88152135356" lon="14.744851747">
        <ele>156.6</ele>
        <time>2019-10-21T19:23:17Z</time>
      </trkpt>
      <trkpt lat="56.881526969433" lon="14.744694921651">
        <ele>157.2</ele>
        <time>2019-10-21T19:23:19Z</time>
      </trkpt>
      <trkpt lat="56.881529232546" lon="14.744508005281">
        <ele>157.2</ele>
        <time>2019-10-21T19:23:21Z</time>
      </trkpt>
      <trkpt lat="56.881539542283" lon="14.744163425372">
        <ele>157</ele>
        <time>2019-10-21T19:23:25Z</time>
      </trkpt>
      <trkpt lat="56.881496710774" lon="14.743801327292">
        <ele>157.4</ele>
        <time>2019-10-21T19:23:29Z</time>
      </trkpt>
      <trkpt lat="56.88148531139" lon="14.743625894125">
        <ele>157.6</ele>
        <time>2019-10-21T19:23:31Z</time>
      </trkpt>
      <trkpt lat="56.881502829561" lon="14.742736574535">
        <ele>157.6</ele>
        <time>2019-10-21T19:23:40Z</time>
      </trkpt>
      <trkpt lat="56.881521856474" lon="14.742299206993">
        <ele>157.8</ele>
        <time>2019-10-21T19:23:45Z</time>
      </trkpt>
      <trkpt lat="56.881545158156" lon="14.741773494225">
        <ele>159</ele>
        <time>2019-10-21T19:23:50Z</time>
      </trkpt>
      <trkpt lat="56.881518922809" lon="14.74155346935">
        <ele>160.6</ele>
        <time>2019-10-21T19:23:52Z</time>
      </trkpt>
      <trkpt lat="56.881471313617" lon="14.741379042011">
        <ele>161.6</ele>
        <time>2019-10-21T19:23:54Z</time>
      </trkpt>
      <trkpt lat="56.881338544321" lon="14.741335791407">
        <ele>160.6</ele>
        <time>2019-10-21T19:23:56Z</time>
      </trkpt>
      <trkpt lat="56.880909055765" lon="14.74114275625">
        <ele>160</ele>
        <time>2019-10-21T19:24:04Z</time>
      </trkpt>
      <trkpt lat="56.880826326412" lon="14.741024990555">
        <ele>160</ele>
        <time>2019-10-21T19:24:06Z</time>
      </trkpt>
      <trkpt lat="56.880791541527" lon="14.740968748006">
        <ele>160</ele>
        <time>2019-10-21T19:24:07Z</time>
      </trkpt>
    </trkseg>
  </trk>
</gpx>